»·PEaware :: N88DR KCMA-KDLO

N88DR :: KCMA-KDLO

FLIGHT INFORMATION

Flight Status: Arrived
Operator: Privately registered:
United States
More flights under this callsign
Pilot: Derek R. (15925)
Aircraft: CESSNA 182 SKYLANE
(C182)
More flights by this aircraft type
Origin: KCMA Camarillo
United States
Destination: KDLO Delano Mun
United States
More flights between these airports :: More routes between these airports
Route: + ZUWNI V299 GMN V23 DELNO
File this flight plan on PilotEdge
Remarks:
Altitude:
(Current/Filed)
11,000ft
Speed:
(Current/Filed)
110kts
Departed: 27-Oct-19 06:59 AM
Arrived: 27-Oct-19 08:06 AM
Distance/Time
Traveled:
92nm/1:06
Distance/Time
To Go:
Arrived

Flight Plot

Page will automatically refresh every two minutes.

Flight plan parsing failed; only flown route is shown


Map Options




Map Legend


Flown Route
Filed Route
Departure Airport
Arrival Airport
Navaid (VOR, NDB)
Fix

Horizontal Profiles

Position Reports

Time Latitude Longitude Heading Altitude Ground
Speed
27-Oct-19 06:57 34.213949 -119.096199 281 296ft 104kts
27-Oct-19 06:58 34.220959 -119.114298 301 880ft 116kts
27-Oct-19 06:59 34.229400 -119.131720 304 1515ft 118kts
27-Oct-19 07:00 34.240983 -119.155630 304 2397ft 118kts
27-Oct-19 07:01 34.251869 -119.178819 304 3253ft 117kts
27-Oct-19 07:02 34.264385 -119.199719 348 4110ft 110kts
27-Oct-19 07:03 34.285005 -119.188842 26 5064ft 109kts
27-Oct-19 07:04 34.304710 -119.174820 24 6010ft 109kts
27-Oct-19 07:05 34.324636 -119.160636 22 6953ft 110kts
27-Oct-19 07:06 34.344599 -119.146434 21 7879ft 112kts
27-Oct-19 07:07 34.366770 -119.130890 21 8407ft 140kts
27-Oct-19 07:08 34.395615 -119.110806 23 7973ft 171kts
27-Oct-19 07:09 34.425053 -119.089910 23 8073ft 153kts
27-Oct-19 07:10 34.450919 -119.071427 21 8739ft 136kts
27-Oct-19 07:11 34.474567 -119.054553 19 9558ft 129kts
27-Oct-19 07:12 34.496198 -119.033951 11 10398ft 126kts
27-Oct-19 07:13 34.521389 -119.021175 11 10962ft 146kts
27-Oct-19 07:14 34.551732 -119.004661 14 10964ft 169kts
27-Oct-19 07:15 34.581075 -118.988070 15 10964ft 173kts
27-Oct-19 07:16 34.609140 -118.972134 15 10965ft 173kts
27-Oct-19 07:17 34.637232 -118.956135 14 10968ft 166kts
27-Oct-19 07:18 34.667654 -118.938866 14 10972ft 165kts
27-Oct-19 07:19 34.697083 -118.921974 14 10977ft 165kts
27-Oct-19 07:20 34.726638 -118.905004 14 10982ft 166kts
27-Oct-19 07:21 34.756199 -118.888368 13 10982ft 167kts
27-Oct-19 07:22 34.786531 -118.871174 13 10983ft 168kts
27-Oct-19 07:24 34.816502 -118.867718 337 10983ft 148kts
27-Oct-19 07:25 34.845261 -118.876042 335 10978ft 147kts
27-Oct-19 07:26 34.874509 -118.885650 334 10972ft 147kts
27-Oct-19 07:27 34.904288 -118.895779 334 10967ft 148kts
27-Oct-19 07:28 34.934306 -118.906084 334 10963ft 147kts
27-Oct-19 07:29 34.963873 -118.916266 334 10960ft 147kts
27-Oct-19 07:30 34.995145 -118.926976 335 10613ft 157kts
27-Oct-19 07:31 35.027423 -118.937915 335 10209ft 147kts
27-Oct-19 07:32 35.057726 -118.948350 336 9808ft 143kts
27-Oct-19 07:33 35.087411 -118.958702 336 9409ft 142kts
27-Oct-19 07:34 35.115850 -118.968623 336 9034ft 141kts
27-Oct-19 07:35 35.144982 -118.978790 337 8656ft 141kts
27-Oct-19 07:36 35.173785 -118.988845 337 8277ft 139kts
27-Oct-19 07:37 35.201642 -118.998578 338 7904ft 137kts
27-Oct-19 07:38 35.229449 -119.008244 338 7529ft 137kts
27-Oct-19 07:39 35.256940 -119.017801 339 7157ft 137kts
27-Oct-19 07:40 35.283582 -119.027728 337 6767ft 138kts
27-Oct-19 07:41 35.309916 -119.038337 337 6220ft 139kts
27-Oct-19 07:42 35.333727 -119.047923 336 6338ft 94kts
27-Oct-19 07:42 35.347566 -119.053553 334 6604ft 76kts
27-Oct-19 07:44 35.360321 -119.058936 299 7108ft 36kts
27-Oct-19 07:45 35.371615 -119.058870 336 6874ft 89kts
27-Oct-19 07:45 35.389807 -119.064722 318 7473ft 93kts
27-Oct-19 07:46 35.411699 -119.079033 334 6911ft 133kts
27-Oct-19 07:47 35.435087 -119.089197 336 6062ft 103kts
27-Oct-19 07:48 35.453628 -119.096862 337 5222ft 88kts
27-Oct-19 07:49 35.470859 -119.103932 338 4390ft 86kts
27-Oct-19 07:50 35.487972 -119.110929 339 3563ft 87kts
27-Oct-19 07:51 35.505452 -119.118064 340 2727ft 88kts
27-Oct-19 07:52 35.519274 -119.123759 333 2564ft 50kts
27-Oct-19 07:53 35.538640 -119.131428 340 2534ft 140kts
27-Oct-19 07:54 35.563322 -119.139828 342 2620ft 118kts
27-Oct-19 07:55 35.586117 -119.148087 340 1837ft 123kts
27-Oct-19 07:56 35.605656 -119.158908 331 1945ft 98kts
27-Oct-19 07:57 35.615130 -119.165343 332 2020ft 99kts
27-Oct-19 07:58 35.629349 -119.174623 335 2008ft 100kts
27-Oct-19 07:59 35.649256 -119.185132 338 2001ft 99kts
27-Oct-19 08:00 35.669557 -119.194844 338 1748ft 109kts
27-Oct-19 08:01 35.685318 -119.204455 332 1517ft 111kts
27-Oct-19 08:02 35.701763 -119.214898 332 1070ft 123kts
27-Oct-19 08:03 35.718468 -119.225571 337 604ft 107kts
27-Oct-19 08:04 35.738356 -119.233017 336 321ft 68kts
27-Oct-19 08:05 35.745194 -119.237126 288 317ft 5kts
27-Oct-19 08:06 35.745263 -119.238720 260 314ft 3kts
27-Oct-19 08:07 35.745241 -119.238845 261 314ft 0kts

Navigation Log

Ident Type
Flight plan parsing failed, navigation log unavailable